sensor_id;sensor_type;location;lat;lon;timestamp;temperature;humidity
8481;DHT22;4277;51.354;6.740;2023-03-01T04:18:19;-2.50;99.90
8481;DHT22;4277;51.354;6.740;2023-03-01T04:20:46;-2.50;99.90
8481;DHT22;4277;51.354;6.740;2023-03-01T04:23:17;-2.50;99.90
8481;DHT22;4277;51.354;6.740;2023-03-01T04:25:47;-2.60;99.90
8481;DHT22;4277;51.354;6.740;2023-03-01T04:28:25;-2.60;99.90
8481;DHT22;4277;51.354;6.740;2023-03-01T04:30:52;-2.60;99.90
8481;DHT22;4277;51.354;6.740;2023-03-01T04:33:19;-2.60;99.90
8481;DHT22;4277;51.354;6.740;2023-03-01T04:35:45;-2.60;99.90
8481;DHT22;4277;51.354;6.740;2023-03-01T04:38:10;-2.30;99.90
8481;DHT22;4277;51.354;6.740;2023-03-01T04:40:36;-1.80;99.90
8481;DHT22;4277;51.354;6.740;2023-03-01T04:43:03;-1.60;99.90
8481;DHT22;4277;51.354;6.740;2023-03-01T04:45:29;-1.60;99.90
8481;DHT22;4277;51.354;6.740;2023-03-01T04:47:55;-1.50;99.90
8481;DHT22;4277;51.354;6.740;2023-03-01T04:50:23;-1.50;99.90
8481;DHT22;4277;51.354;6.740;2023-03-01T04:52:49;-1.50;99.90
8481;DHT22;4277;51.354;6.740;2023-03-01T04:55:14;-1.50;99.90
8481;DHT22;4277;51.354;6.740;2023-03-01T04:57:40;-1.50;99.90
8481;DHT22;4277;51.354;6.740;2023-03-01T05:00:09;-1.50;99.90
8481;DHT22;4277;51.354;6.740;2023-03-01T05:02:49;-1.60;99.90
8481;DHT22;4277;51.354;6.740;2023-03-01T05:05:19;-1.50;99.90
8481;DHT22;4277;51.354;6.740;2023-03-01T05:07:44;-1.80;99.90
8481;DHT22;4277;51.354;6.740;2023-03-01T05:10:10;-3.00;99.90
8481;DHT22;4277;51.354;6.740;2023-03-01T05:12:36;-2.00;99.90
8481;DHT22;4277;51.354;6.740;2023-03-01T05:15:03;-2.10;99.90
8481;DHT22;4277;51.354;6.740;2023-03-01T05:17:33;-2.10;99.90
8481;DHT22;4277;51.354;6.740;2023-03-01T05:19:58;-2.20;99.90
8481;DHT22;4277;51.354;6.740;2023-03-01T05:22:25;-2.30;99.90
8481;DHT22;4277;51.354;6.740;2023-03-01T05:24:50;-2.40;99.90
8481;DHT22;4277;51.354;6.740;2023-03-01T05:27:16;-2.50;99.90
8481;DHT22;4277;51.354;6.740;2023-03-01T05:29:41;-2.50;99.90
8481;DHT22;4277;51.354;6.740;2023-03-01T05:32:07;-2.40;99.90
8481;DHT22;4277;51.354;6.740;2023-03-01T05:34:35;-2.20;99.90
8481;DHT22;4277;51.354;6.740;2023-03-01T05:37:01;-2.30;99.90
8481;DHT22;4277;51.354;6.740;2023-03-01T05:39:28;-2.30;99.90
8481;DHT22;4277;51.354;6.740;2023-03-01T05:41:57;-2.10;99.90
8481;DHT22;4277;51.354;6.740;2023-03-01T05:44:23;-2.10;99.90
8481;DHT22;4277;51.354;6.740;2023-03-01T05:46:49;-2.10;99.90
8481;DHT22;4277;51.354;6.740;2023-03-01T05:49:15;-2.00;99.90
8481;DHT22;4277;51.354;6.740;2023-03-01T05:51:42;-2.10;99.90
8481;DHT22;4277;51.354;6.740;2023-03-01T05:54:09;-2.20;99.90
8481;DHT22;4277;51.354;6.740;2023-03-01T05:56:37;-2.40;99.90
8481;DHT22;4277;51.354;6.740;2023-03-01T05:59:04;-2.40;99.90
8481;DHT22;4277;51.354;6.740;2023-03-01T06:01:34;-2.40;99.90
8481;DHT22;4277;51.354;6.740;2023-03-01T06:04:00;-2.30;99.90
8481;DHT22;4277;51.354;6.740;2023-03-01T06:06:26;-2.50;99.90
8481;DHT22;4277;51.354;6.740;2023-03-01T06:08:52;-2.40;99.90
8481;DHT22;4277;51.354;6.740;2023-03-01T06:11:19;-2.30;99.90
8481;DHT22;4277;51.354;6.740;2023-03-01T06:13:45;-2.40;99.90
8481;DHT22;4277;51.354;6.740;2023-03-01T06:16:11;-2.50;99.90
8481;DHT22;4277;51.354;6.740;2023-03-01T06:18:38;-2.50;99.90
8481;DHT22;4277;51.354;6.740;2023-03-01T06:21:04;-2.80;99.90
8481;DHT22;4277;51.354;6.740;2023-03-01T06:23:31;-2.90;99.90
8481;DHT22;4277;51.354;6.740;2023-03-01T06:25:56;-2.90;99.90
8481;DHT22;4277;51.354;6.740;2023-03-01T06:28:22;-3.00;99.90
8481;DHT22;4277;51.354;6.740;2023-03-01T06:30:49;-3.20;99.90
8481;DHT22;4277;51.354;6.740;2023-03-01T06:33:15;-3.10;99.90
8481;DHT22;4277;51.354;6.740;2023-03-01T06:35:41;-3.20;99.90
8481;DHT22;4277;51.354;6.740;2023-03-01T06:38:06;-3.10;99.90
8481;DHT22;4277;51.354;6.740;2023-03-01T06:40:32;-2.90;99.90
8481;DHT22;4277;51.354;6.740;2023-03-01T06:43:00;-2.70;99.90
8481;DHT22;4277;51.354;6.740;2023-03-01T06:45:26;-2.70;99.90
8481;DHT22;4277;51.354;6.740;2023-03-01T06:47:51;-2.60;99.90
8481;DHT22;4277;51.354;6.740;2023-03-01T06:50:18;-2.50;99.90
8481;DHT22;4277;51.354;6.740;2023-03-01T06:55:11;-2.20;99.90
8481;DHT22;4277;51.354;6.740;2023-03-01T06:57:36;-2.10;99.90
8481;DHT22;4277;51.354;6.740;2023-03-01T07:00:04;-2.30;99.90
8481;DHT22;4277;51.354;6.740;2023-03-01T07:02:31;-2.20;99.90
8481;DHT22;4277;51.354;6.740;2023-03-01T07:04:56;-2.20;99.90
8481;DHT22;4277;51.354;6.740;2023-03-01T07:07:22;-2.20;99.90
8481;DHT22;4277;51.354;6.740;2023-03-01T07:09:49;-2.20;99.90
8481;DHT22;4277;51.354;6.740;2023-03-01T07:12:14;-2.10;99.90
8481;DHT22;4277;51.354;6.740;2023-03-01T07:14:40;-2.20;99.90
8481;DHT22;4277;51.354;6.740;2023-03-01T07:17:06;-2.20;99.90
8481;DHT22;4277;51.354;6.740;2023-03-01T07:19:31;-1.90;99.90
8481;DHT22;4277;51.354;6.740;2023-03-01T07:21:57;-1.80;99.90
8481;DHT22;4277;51.354;6.740;2023-03-01T07:24:23;-1.70;99.90
8481;DHT22;4277;51.354;6.740;2023-03-01T07:26:49;-1.40;99.90
8481;DHT22;4277;51.354;6.740;2023-03-01T07:29:16;-1.30;99.90
8481;DHT22;4277;51.354;6.740;2023-03-01T07:31:42;-1.10;99.90
8481;DHT22;4277;51.354;6.740;2023-03-01T07:34:07;-1.10;99.90
8481;DHT22;4277;51.354;6.740;2023-03-01T07:36:33;-1.00;99.90
8481;DHT22;4277;51.354;6.740;2023-03-01T07:38:58;-0.90;99.90
8481;DHT22;4277;51.354;6.740;2023-03-01T07:41:24;-0.90;99.90
8481;DHT22;4277;51.354;6.740;2023-03-01T07:43:50;-0.80;99.90
8481;DHT22;4277;51.354;6.740;2023-03-01T07:46:15;-0.80;99.90
8481;DHT22;4277;51.354;6.740;2023-03-01T07:48:41;-0.70;99.90
8481;DHT22;4277;51.354;6.740;2023-03-01T07:51:07;-0.80;99.90
8481;DHT22;4277;51.354;6.740;2023-03-01T07:53:33;-0.80;99.90
8481;DHT22;4277;51.354;6.740;2023-03-01T07:56:09;-0.60;99.90
8481;DHT22;4277;51.354;6.740;2023-03-01T07:58:36;-0.60;99.90
8481;DHT22;4277;51.354;6.740;2023-03-01T08:01:04;-0.50;99.90
8481;DHT22;4277;51.354;6.740;2023-03-01T08:03:29;-0.50;99.90
8481;DHT22;4277;51.354;6.740;2023-03-01T08:05:55;-0.40;99.90
8481;DHT22;4277;51.354;6.740;2023-03-01T08:08:21;-0.30;99.90
8481;DHT22;4277;51.354;6.740;2023-03-01T08:10:46;-0.30;99.90
8481;DHT22;4277;51.354;6.740;2023-03-01T08:13:12;-0.20;99.90
8481;DHT22;4277;51.354;6.740;2023-03-01T08:15:37;-0.10;99.90
8481;DHT22;4277;51.354;6.740;2023-03-01T08:18:03;-0.10;99.90
8481;DHT22;4277;51.354;6.740;2023-03-01T12:06:52;2.50;85.00
8481;DHT22;4277;51.354;6.740;2023-03-01T12:17:18;3.70;92.60
8481;DHT22;4277;51.354;6.740;2023-03-01T18:07:52;5.00;30.60
8481;DHT22;4277;51.354;6.740;2023-03-01T18:10:18;3.00;57.50
8481;DHT22;4277;51.354;6.740;2023-03-01T18:12:44;2.90;71.10
8481;DHT22;4277;51.354;6.740;2023-03-01T18:15:10;2.90;60.80
8481;DHT22;4277;51.354;6.740;2023-03-01T18:17:36;2.80;65.70
8481;DHT22;4277;51.354;6.740;2023-03-01T18:20:03;2.80;62.20
8481;DHT22;4277;51.354;6.740;2023-03-01T18:22:30;2.80;70.20
8481;DHT22;4277;51.354;6.740;2023-03-01T18:24:56;2.80;66.00
8481;DHT22;4277;51.354;6.740;2023-03-01T18:27:21;2.70;62.90
8481;DHT22;4277;51.354;6.740;2023-03-01T18:29:47;2.70;64.40
8481;DHT22;4277;51.354;6.740;2023-03-01T18:32:12;2.60;71.00
8481;DHT22;4277;51.354;6.740;2023-03-01T18:34:38;2.70;72.80
8481;DHT22;4277;51.354;6.740;2023-03-01T18:37:04;2.60;74.30
8481;DHT22;4277;51.354;6.740;2023-03-01T18:39:29;2.60;72.50
8481;DHT22;4277;51.354;6.740;2023-03-01T18:41:55;2.60;68.70
8481;DHT22;4277;51.354;6.740;2023-03-01T18:44:20;2.60;76.40
8481;DHT22;4277;51.354;6.740;2023-03-01T18:46:46;2.50;75.00
8481;DHT22;4277;51.354;6.740;2023-03-01T18:49:14;2.50;75.40
8481;DHT22;4277;51.354;6.740;2023-03-01T18:51:40;2.60;84.40
8481;DHT22;4277;51.354;6.740;2023-03-01T18:54:07;2.60;73.00
8481;DHT22;4277;51.354;6.740;2023-03-01T18:56:34;2.60;76.50
8481;DHT22;4277;51.354;6.740;2023-03-01T18:59:00;2.50;81.80
8481;DHT22;4277;51.354;6.740;2023-03-01T19:01:28;2.60;86.70
8481;DHT22;4277;51.354;6.740;2023-03-01T19:03:54;2.60;84.00
8481;DHT22;4277;51.354;6.740;2023-03-01T19:06:26;2.60;82.70
8481;DHT22;4277;51.354;6.740;2023-03-01T19:08:53;2.70;88.30
8481;DHT22;4277;51.354;6.740;2023-03-01T19:11:18;2.60;87.60
8481;DHT22;4277;51.354;6.740;2023-03-01T19:13:45;2.70;89.60
8481;DHT22;4277;51.354;6.740;2023-03-01T19:16:14;2.70;87.30
8481;DHT22;4277;51.354;6.740;2023-03-01T19:18:42;2.70;84.90
8481;DHT22;4277;51.354;6.740;2023-03-01T19:21:09;2.70;84.70
8481;DHT22;4277;51.354;6.740;2023-03-01T19:23:36;2.70;83.30
8481;DHT22;4277;51.354;6.740;2023-03-01T19:26:07;2.80;85.70
8481;DHT22;4277;51.354;6.740;2023-03-01T19:28:34;2.80;84.60
8481;DHT22;4277;51.354;6.740;2023-03-01T19:31:02;2.80;80.60
8481;DHT22;4277;51.354;6.740;2023-03-01T19:33:29;2.80;83.00
8481;DHT22;4277;51.354;6.740;2023-03-01T19:35:55;2.80;78.60
8481;DHT22;4277;51.354;6.740;2023-03-01T19:38:21;2.80;79.10
8481;DHT22;4277;51.354;6.740;2023-03-01T19:40:47;2.80;77.60
8481;DHT22;4277;51.354;6.740;2023-03-01T19:43:12;2.80;80.30
8481;DHT22;4277;51.354;6.740;2023-03-01T19:45:38;2.80;81.70
8481;DHT22;4277;51.354;6.740;2023-03-01T19:48:04;2.70;71.90
8481;DHT22;4277;51.354;6.740;2023-03-01T19:50:30;2.70;73.10
8481;DHT22;4277;51.354;6.740;2023-03-01T19:52:55;2.70;70.10
8481;DHT22;4277;51.354;6.740;2023-03-01T19:55:21;2.60;70.70
8481;DHT22;4277;51.354;6.740;2023-03-01T19:57:46;2.60;67.00
8481;DHT22;4277;51.354;6.740;2023-03-01T20:00:12;2.60;80.30
8481;DHT22;4277;51.354;6.740;2023-03-01T20:02:38;2.50;73.10
8481;DHT22;4277;51.354;6.740;2023-03-01T20:05:04;2.60;84.20
8481;DHT22;4277;51.354;6.740;2023-03-01T20:07:29;2.60;83.30
8481;DHT22;4277;51.354;6.740;2023-03-01T20:09:55;2.60;78.20
8481;DHT22;4277;51.354;6.740;2023-03-01T20:12:20;2.60;83.60
8481;DHT22;4277;51.354;6.740;2023-03-01T20:14:46;2.60;83.70
8481;DHT22;4277;51.354;6.740;2023-03-01T20:17:13;2.60;81.20
8481;DHT22;4277;51.354;6.740;2023-03-01T20:19:38;2.60;83.50
8481;DHT22;4277;51.354;6.740;2023-03-01T20:22:04;2.60;81.10
8481;DHT22;4277;51.354;6.740;2023-03-01T20:24:29;2.60;80.00
8481;DHT22;4277;51.354;6.740;2023-03-01T20:26:59;2.60;77.50
8481;DHT22;4277;51.354;6.740;2023-03-01T20:29:25;2.60;79.40
8481;DHT22;4277;51.354;6.740;2023-03-01T20:31:51;2.60;80.30
8481;DHT22;4277;51.354;6.740;2023-03-01T20:34:16;2.60;78.90
8481;DHT22;4277;51.354;6.740;2023-03-01T20:36:42;2.60;81.20
8481;DHT22;4277;51.354;6.740;2023-03-01T20:39:09;2.60;81.10
8481;DHT22;4277;51.354;6.740;2023-03-01T20:41:36;2.50;79.80
8481;DHT22;4277;51.354;6.740;2023-03-01T21:01:10;2.50;78.80
8481;DHT22;4277;51.354;6.740;2023-03-01T21:03:36;2.20;89.10
8481;DHT22;4277;51.354;6.740;2023-03-01T21:10:56;2.10;86.20
8481;DHT22;4277;51.354;6.740;2023-03-01T21:13:22;1.90;81.60
8481;DHT22;4277;51.354;6.740;2023-03-01T21:15:56;1.90;91.90
8481;DHT22;4277;51.354;6.740;2023-03-01T21:18:22;2.00;90.10
8481;DHT22;4277;51.354;6.740;2023-03-01T21:23:20;2.00;76.80
8481;DHT22;4277;51.354;6.740;2023-03-01T21:25:46;2.00;88.80
8481;DHT22;4277;51.354;6.740;2023-03-01T21:28:11;2.00;90.90
8481;DHT22;4277;51.354;6.740;2023-03-01T21:30:37;2.10;93.00
8481;DHT22;4277;51.354;6.740;2023-03-01T21:35:28;2.00;89.30
8481;DHT22;4277;51.354;6.740;2023-03-01T21:37:54;2.00;92.30
8481;DHT22;4277;51.354;6.740;2023-03-01T21:40:19;2.10;93.60
8481;DHT22;4277;51.354;6.740;2023-03-01T21:42:45;2.10;90.80
8481;DHT22;4277;51.354;6.740;2023-03-01T21:45:13;2.10;92.00
8481;DHT22;4277;51.354;6.740;2023-03-01T21:47:38;2.10;92.40
8481;DHT22;4277;51.354;6.740;2023-03-01T21:50:04;2.10;91.30
8481;DHT22;4277;51.354;6.740;2023-03-01T21:52:33;2.10;95.10
8481;DHT22;4277;51.354;6.740;2023-03-01T21:54:59;2.10;98.90
8481;DHT22;4277;51.354;6.740;2023-03-01T21:57:27;2.10;95.80
8481;DHT22;4277;51.354;6.740;2023-03-01T21:59:52;2.20;92.80
8481;DHT22;4277;51.354;6.740;2023-03-01T22:02:18;2.20;92.80
8481;DHT22;4277;51.354;6.740;2023-03-01T22:04:43;2.10;90.50
8481;DHT22;4277;51.354;6.740;2023-03-01T22:07:10;2.10;91.80
8481;DHT22;4277;51.354;6.740;2023-03-01T22:09:35;2.10;91.60
8481;DHT22;4277;51.354;6.740;2023-03-01T22:12:03;2.10;90.60
8481;DHT22;4277;51.354;6.740;2023-03-01T22:14:30;2.10;91.30
8481;DHT22;4277;51.354;6.740;2023-03-01T22:16:56;2.00;90.00
8481;DHT22;4277;51.354;6.740;2023-03-01T22:19:22;2.00;90.90
8481;DHT22;4277;51.354;6.740;2023-03-01T22:21:49;2.00;91.50
8481;DHT22;4277;51.354;6.740;2023-03-01T22:24:17;1.90;93.00
8481;DHT22;4277;51.354;6.740;2023-03-01T22:26:46;1.90;87.60
8481;DHT22;4277;51.354;6.740;2023-03-01T22:29:15;1.80;75.80
8481;DHT22;4277;51.354;6.740;2023-03-01T22:31:41;1.80;81.60
8481;DHT22;4277;51.354;6.740;2023-03-01T22:34:08;1.90;93.60
8481;DHT22;4277;51.354;6.740;2023-03-01T22:36:34;2.00;92.90
8481;DHT22;4277;51.354;6.740;2023-03-01T22:39:00;1.90;92.00
8481;DHT22;4277;51.354;6.740;2023-03-01T22:41:32;2.00;96.20
8481;DHT22;4277;51.354;6.740;2023-03-01T22:43:58;2.00;95.70
8481;DHT22;4277;51.354;6.740;2023-03-01T22:46:25;2.00;95.20
8481;DHT22;4277;51.354;6.740;2023-03-01T22:48:50;2.00;93.60
8481;DHT22;4277;51.354;6.740;2023-03-01T22:51:19;2.00;95.00
8481;DHT22;4277;51.354;6.740;2023-03-01T22:53:45;2.00;98.30
8481;DHT22;4277;51.354;6.740;2023-03-01T22:56:17;1.90;96.30
8481;DHT22;4277;51.354;6.740;2023-03-01T22:58:43;1.90;92.60
8481;DHT22;4277;51.354;6.740;2023-03-01T23:01:14;1.90;92.70
8481;DHT22;4277;51.354;6.740;2023-03-01T23:03:40;1.80;94.70
8481;DHT22;4277;51.354;6.740;2023-03-01T23:06:06;1.80;95.40
8481;DHT22;4277;51.354;6.740;2023-03-01T23:08:31;1.70;92.10
8481;DHT22;4277;51.354;6.740;2023-03-01T23:10:57;1.70;93.30
8481;DHT22;4277;51.354;6.740;2023-03-01T23:13:23;1.70;95.50
8481;DHT22;4277;51.354;6.740;2023-03-01T23:15:56;1.70;96.00
8481;DHT22;4277;51.354;6.740;2023-03-01T23:18:23;1.70;95.00
8481;DHT22;4277;51.354;6.740;2023-03-01T23:20:48;1.70;96.00
8481;DHT22;4277;51.354;6.740;2023-03-01T23:23:14;1.70;97.90
8481;DHT22;4277;51.354;6.740;2023-03-01T23:25:40;1.70;96.50
8481;DHT22;4277;51.354;6.740;2023-03-01T23:28:05;1.60;97.90
8481;DHT22;4277;51.354;6.740;2023-03-01T23:30:31;1.60;98.20
8481;DHT22;4277;51.354;6.740;2023-03-01T23:32:57;1.50;94.30
8481;DHT22;4277;51.354;6.740;2023-03-01T23:35:25;1.50;99.90
8481;DHT22;4277;51.354;6.740;2023-03-01T23:37:51;1.50;99.90
8481;DHT22;4277;51.354;6.740;2023-03-01T23:40:16;1.50;99.90
8481;DHT22;4277;51.354;6.740;2023-03-01T23:42:42;1.50;99.90
8481;DHT22;4277;51.354;6.740;2023-03-01T23:45:09;1.50;99.90
